createdAt,value
2023-04-07T00:00:42.581Z,3.60
2023-04-07T00:03:44.422Z,3.56
2023-04-07T00:06:46.148Z,3.53
2023-04-07T00:09:47.719Z,3.49
2023-04-07T00:12:49.262Z,3.42
2023-04-07T00:15:50.873Z,3.38
2023-04-07T00:18:52.546Z,3.37
2023-04-07T00:21:54.444Z,3.36
2023-04-07T00:24:56.024Z,3.36
2023-04-07T00:27:57.886Z,3.35
2023-04-07T00:30:59.479Z,3.35
2023-04-07T00:34:01.151Z,3.31
2023-04-07T00:37:02.761Z,3.29
2023-04-07T00:40:05.195Z,3.24
2023-04-07T00:43:06.810Z,3.17
2023-04-07T00:46:08.509Z,3.11
2023-04-07T00:49:11.342Z,3.07
2023-04-07T00:52:14.650Z,3.03
2023-04-07T00:55:16.302Z,2.99
2023-04-07T00:58:18.014Z,2.96
2023-04-07T01:01:24.915Z,2.94
2023-04-07T01:04:26.465Z,2.87
2023-04-07T01:07:36.613Z,2.79
2023-04-07T01:10:50.091Z,2.72
2023-04-07T01:13:54.405Z,2.68
2023-04-07T01:16:59.830Z,2.65
2023-04-07T01:20:08.003Z,2.64
2023-04-07T01:23:17.790Z,2.61
2023-04-07T01:26:23.292Z,2.59
2023-04-07T01:29:44.780Z,2.53
2023-04-07T01:32:51.877Z,2.49
2023-04-07T01:35:55.183Z,2.43
2023-04-07T01:38:59.042Z,2.39
2023-04-07T01:42:04.544Z,2.38
2023-04-07T01:45:07.817Z,2.37
2023-04-07T01:48:09.852Z,2.36
2023-04-07T01:54:17.861Z,2.31
2023-04-07T01:57:19.399Z,2.30
2023-04-07T02:00:21.233Z,2.31
2023-04-07T02:03:34.846Z,2.29
2023-04-07T02:06:43.416Z,2.27
2023-04-07T02:09:48.361Z,2.24
2023-04-07T02:12:50.037Z,2.23
2023-04-07T02:15:54.766Z,2.21
2023-04-07T02:18:56.778Z,2.17
2023-04-07T02:22:01.450Z,2.14
2023-04-07T02:25:03.058Z,2.12
2023-04-07T02:28:06.014Z,2.11
2023-04-07T02:31:07.615Z,2.08
2023-04-07T02:34:09.384Z,2.06
2023-04-07T02:37:11.038Z,2.01
2023-04-07T02:40:13.264Z,1.98
2023-04-07T02:43:14.970Z,1.94
2023-04-07T02:46:16.783Z,1.91
2023-04-07T02:49:18.374Z,1.88
2023-04-07T02:52:19.903Z,1.86
2023-04-07T02:55:21.486Z,1.84
2023-04-07T02:58:23.068Z,1.82
2023-04-07T03:01:24.662Z,1.79
2023-04-07T03:04:26.525Z,1.78
2023-04-07T03:07:28.375Z,1.78
2023-04-07T03:10:29.943Z,1.74
2023-04-07T03:13:32.327Z,1.71
2023-04-07T03:16:33.947Z,1.68
2023-04-07T03:19:35.525Z,1.62
2023-04-07T03:22:37.091Z,1.59
2023-04-07T03:25:38.693Z,1.55
2023-04-07T03:28:40.579Z,1.55
2023-04-07T03:31:42.192Z,1.52
2023-04-07T03:34:43.784Z,1.49
2023-04-07T03:37:45.428Z,1.49
2023-04-07T03:40:47.173Z,1.48
2023-04-07T03:43:48.706Z,1.45
2023-04-07T03:46:50.816Z,1.40
2023-04-07T03:49:52.331Z,1.35
2023-04-07T03:52:53.899Z,1.31
2023-04-07T03:55:55.511Z,1.27
2023-04-07T03:58:57.215Z,1.24
2023-04-07T04:01:58.963Z,1.21
2023-04-07T04:05:00.623Z,1.17
2023-04-07T04:08:02.189Z,1.13
2023-04-07T04:11:03.756Z,1.10
2023-04-07T04:14:06.586Z,1.06
2023-04-07T04:17:08.143Z,1.03
2023-04-07T04:20:10.260Z,0.99
2023-04-07T04:23:11.811Z,0.95
2023-04-07T04:26:13.408Z,0.92
2023-04-07T04:29:15.027Z,0.89
2023-04-07T04:32:17.913Z,0.88
2023-04-07T04:35:19.634Z,0.85
2023-04-07T04:38:21.302Z,0.83
2023-04-07T04:41:22.860Z,0.82
2023-04-07T04:44:24.462Z,0.76
2023-04-07T04:47:26.228Z,0.75
2023-04-07T04:50:27.775Z,0.74
2023-04-07T04:53:29.449Z,0.73
2023-04-07T04:56:31.020Z,0.72
2023-04-07T04:59:32.558Z,0.70
2023-04-07T05:02:34.397Z,0.69
2023-04-07T05:05:36.243Z,0.69
2023-04-07T05:08:37.796Z,0.69
2023-04-07T05:11:41.260Z,0.71
2023-04-07T05:14:42.814Z,0.72
2023-04-07T05:17:44.486Z,0.74
2023-04-07T05:20:48.560Z,0.76
2023-04-07T05:23:50.362Z,0.79
2023-04-07T05:26:52.090Z,0.83
2023-04-07T05:29:53.651Z,0.90
2023-04-07T05:32:55.379Z,0.94
2023-04-07T05:35:56.968Z,1.01
2023-04-07T05:38:58.584Z,1.08
2023-04-07T05:42:02.195Z,1.12
2023-04-07T05:45:04.808Z,1.20
2023-04-07T05:48:06.595Z,1.28
2023-04-07T05:51:08.234Z,1.38
2023-04-07T05:54:09.814Z,1.48
2023-04-07T05:57:11.432Z,1.58
2023-04-07T06:00:13.918Z,1.66
2023-04-07T06:03:15.596Z,1.70
2023-04-07T06:06:17.160Z,1.74
2023-04-07T06:09:18.672Z,1.81
2023-04-07T06:12:20.504Z,1.85
2023-04-07T06:15:22.094Z,1.92
2023-04-07T06:18:23.799Z,1.98
2023-04-07T06:21:27.436Z,2.04
2023-04-07T06:24:28.991Z,2.11
2023-04-07T06:27:30.710Z,2.20
2023-04-07T06:30:32.298Z,2.27
2023-04-07T06:33:33.902Z,2.33
2023-04-07T06:36:35.672Z,2.38
2023-04-07T06:39:38.333Z,2.46
2023-04-07T06:42:39.945Z,2.55
2023-04-07T06:45:41.565Z,2.66
2023-04-07T06:48:43.218Z,2.74
2023-04-07T06:51:44.910Z,2.84
2023-04-07T06:54:46.715Z,2.96
2023-04-07T06:57:48.391Z,3.03
2023-04-07T07:00:50.032Z,3.10
2023-04-07T07:03:51.982Z,3.20
2023-04-07T07:06:56.053Z,3.30
2023-04-07T07:09:57.577Z,3.43
2023-04-07T07:12:59.114Z,3.59
2023-04-07T07:16:01.327Z,3.72
2023-04-07T07:19:03.007Z,3.87
2023-04-07T07:22:04.829Z,4.06
2023-04-07T07:25:06.738Z,4.24
2023-04-07T07:28:09.355Z,4.42
2023-04-07T07:31:13.247Z,4.58
2023-04-07T07:34:14.950Z,4.75
2023-04-07T07:37:16.642Z,4.87
2023-04-07T07:40:18.637Z,5.00
2023-04-07T07:43:20.402Z,5.15
2023-04-07T07:46:23.796Z,5.27
2023-04-07T07:49:25.529Z,5.34
2023-04-07T07:52:27.173Z,5.43
2023-04-07T07:55:29.305Z,5.53
2023-04-07T07:58:30.982Z,5.61
2023-04-07T08:01:32.858Z,5.64
2023-04-07T08:04:35.712Z,5.70
2023-04-07T08:07:37.757Z,5.74
2023-04-07T08:10:39.386Z,5.82
2023-04-07T08:13:45.440Z,5.90
2023-04-07T08:16:47.579Z,5.96
2023-04-07T08:19:49.192Z,6.06
2023-04-07T08:22:51.152Z,6.15
2023-04-07T08:25:52.729Z,6.25
2023-04-07T08:28:56.040Z,6.34
2023-04-07T08:31:57.635Z,6.49
2023-04-07T08:34:59.210Z,6.59
2023-04-07T08:38:00.755Z,6.76
2023-04-07T08:41:10.539Z,6.99
2023-04-07T08:44:13.538Z,7.12
2023-04-07T08:47:17.810Z,7.24
2023-04-07T08:50:19.833Z,7.29
2023-04-07T08:53:28.246Z,7.35
2023-04-07T08:56:31.027Z,7.45
2023-04-07T08:59:33.799Z,7.56
2023-04-07T09:02:38.978Z,7.64
2023-04-07T09:05:40.902Z,7.66
2023-04-07T09:08:42.426Z,7.69
2023-04-07T09:11:44.303Z,7.73
2023-04-07T09:14:46.094Z,7.80
2023-04-07T09:17:48.458Z,7.89
2023-04-07T09:21:01.956Z,8.00
2023-04-07T09:24:21.486Z,8.07
2023-04-07T09:27:23.204Z,8.12
2023-04-07T09:30:25.373Z,8.11
2023-04-07T09:33:28.357Z,8.13
2023-04-07T09:36:42.331Z,8.25
2023-04-07T09:39:53.948Z,8.36
2023-04-07T09:42:55.764Z,8.45
2023-04-07T09:46:08.530Z,8.50
2023-04-07T09:49:10.146Z,8.57
2023-04-07T09:52:11.709Z,8.70
2023-04-07T09:55:14.613Z,8.81
2023-04-07T09:58:17.066Z,8.90
2023-04-07T10:01:20.640Z,8.99
2023-04-07T10:04:23.412Z,9.10
2023-04-07T10:07:25.830Z,9.19
2023-04-07T10:10:28.746Z,9.31
2023-04-07T10:13:35.498Z,9.42
2023-04-07T10:16:40.563Z,9.55
2023-04-07T10:19:42.204Z,9.64
2023-04-07T10:22:46.675Z,9.81
2023-04-07T10:25:52.571Z,9.90
2023-04-07T10:29:00.825Z,10.06
2023-04-07T10:32:03.605Z,10.16
2023-04-07T10:35:06.624Z,10.16
2023-04-07T10:38:08.353Z,10.12
2023-04-07T10:41:33.913Z,10.07
2023-04-07T10:44:38.463Z,10.08
2023-04-07T10:48:10.993Z,10.22
2023-04-07T10:51:15.416Z,10.35
2023-04-07T10:54:23.183Z,10.51
2023-04-07T10:57:24.964Z,10.63
2023-04-07T11:00:26.532Z,10.68
2023-04-07T11:03:30.197Z,10.74
2023-04-07T11:06:32.238Z,10.77
2023-04-07T11:09:34.523Z,10.79
2023-04-07T11:12:36.266Z,10.76
2023-04-07T11:15:40.335Z,10.77
2023-04-07T11:18:43.281Z,10.81
2023-04-07T11:21:44.978Z,10.87
2023-04-07T11:24:47.337Z,10.89
2023-04-07T11:27:49.233Z,10.90
2023-04-07T11:30:52.850Z,10.94
2023-04-07T11:33:56.413Z,11.00
2023-04-07T11:37:02.044Z,11.05
2023-04-07T11:40:04.001Z,11.10
2023-04-07T11:43:17.344Z,11.14
2023-04-07T11:46:19.260Z,11.16
2023-04-07T11:49:21.557Z,11.15
2023-04-07T11:52:23.230Z,11.15
2023-04-07T11:55:24.791Z,11.17
2023-04-07T11:58:26.618Z,11.17
2023-04-07T12:01:40.920Z,11.28
2023-04-07T12:04:57.353Z,11.36
2023-04-07T12:07:59.084Z,11.40
2023-04-07T12:11:05.218Z,11.44
2023-04-07T12:14:07.107Z,11.46
2023-04-07T12:17:20.651Z,11.42
2023-04-07T12:20:22.277Z,11.36
2023-04-07T12:23:23.885Z,11.36
2023-04-07T12:26:25.728Z,11.37
2023-04-07T12:29:27.892Z,11.37
2023-04-07T12:32:29.600Z,11.35
2023-04-07T12:35:31.324Z,11.33
2023-04-07T12:38:32.988Z,11.37
2023-04-07T12:41:35.213Z,11.46
2023-04-07T12:44:37.316Z,11.47
2023-04-07T12:47:38.888Z,11.43
2023-04-07T12:50:40.562Z,11.41
2023-04-07T12:53:42.195Z,11.43
2023-04-07T12:56:43.758Z,11.44
2023-04-07T12:59:45.361Z,11.44
2023-04-07T13:02:47.260Z,11.44
2023-04-07T13:05:49.394Z,11.46
2023-04-07T13:08:51.802Z,11.43
2023-04-07T13:11:53.400Z,11.44
2023-04-07T13:15:00.064Z,11.44
2023-04-07T13:18:02.282Z,11.43
2023-04-07T13:24:08.744Z,11.30
2023-04-07T13:27:10.869Z,11.31
2023-04-07T13:30:13.659Z,11.29
2023-04-07T13:33:15.276Z,11.27
2023-04-07T13:36:16.889Z,11.22
2023-04-07T13:39:18.477Z,11.17
2023-04-07T13:42:21.002Z,11.15
2023-04-07T13:45:22.557Z,11.17
2023-04-07T13:48:24.149Z,11.13
2023-04-07T13:51:25.722Z,11.09
2023-04-07T13:54:27.365Z,11.06
2023-04-07T13:57:28.965Z,11.08
2023-04-07T14:00:30.679Z,11.13
2023-04-07T14:03:32.937Z,11.15
2023-04-07T14:06:36.670Z,11.16
2023-04-07T14:09:38.441Z,11.15
2023-04-07T14:12:40.400Z,11.14
2023-04-07T14:15:41.974Z,11.14
2023-04-07T14:18:44.483Z,11.19
2023-04-07T14:21:46.187Z,11.19
2023-04-07T14:24:47.720Z,11.17
2023-04-07T14:27:49.543Z,11.15
2023-04-07T14:30:51.590Z,11.14
2023-04-07T14:33:53.207Z,11.14
2023-04-07T14:36:56.383Z,11.08
2023-04-07T14:43:07.283Z,11.04
2023-04-07T14:46:09.289Z,11.04
2023-04-07T14:49:11.054Z,11.04
2023-04-07T14:52:14.181Z,10.96
2023-04-07T14:55:16.284Z,10.88
2023-04-07T14:58:17.903Z,10.85
2023-04-07T15:01:19.512Z,10.84
2023-04-07T15:04:21.186Z,10.81
2023-04-07T15:07:22.950Z,10.79
2023-04-07T15:10:24.604Z,10.77
2023-04-07T15:13:26.156Z,10.78
2023-04-07T15:16:27.734Z,10.76
2023-04-07T15:19:29.931Z,10.74
2023-04-07T15:22:31.529Z,10.72
2023-04-07T15:25:33.068Z,10.69
2023-04-07T15:28:34.908Z,10.66
2023-04-07T15:31:36.460Z,10.62
2023-04-07T15:34:38.153Z,10.57
2023-04-07T15:37:39.715Z,10.53
2023-04-07T15:40:41.512Z,10.50
2023-04-07T15:43:43.230Z,10.49
2023-04-07T15:46:44.974Z,10.49
2023-04-07T15:49:46.614Z,10.47
2023-04-07T15:52:48.316Z,10.44
2023-04-07T15:55:49.881Z,10.43
2023-04-07T15:58:51.622Z,10.45
2023-04-07T16:01:53.921Z,10.45
2023-04-07T16:04:55.522Z,10.41
2023-04-07T16:07:57.214Z,10.36
2023-04-07T16:10:59.011Z,10.28
2023-04-07T16:14:00.656Z,10.22
2023-04-07T16:17:02.415Z,10.19
2023-04-07T16:20:04.574Z,10.16
2023-04-07T16:23:06.175Z,10.12
2023-04-07T16:26:07.768Z,10.09
2023-04-07T16:29:09.302Z,10.08
2023-04-07T16:32:11.096Z,10.07
2023-04-07T16:35:16.135Z,10.05
2023-04-07T16:38:17.682Z,10.00
2023-04-07T16:41:20.223Z,9.91
2023-04-07T16:44:23.011Z,9.86
2023-04-07T16:47:26.237Z,9.80
2023-04-07T16:50:30.978Z,9.78
2023-04-07T16:53:32.550Z,9.74
2023-04-07T16:56:34.099Z,9.66
2023-04-07T16:59:35.955Z,9.59
2023-04-07T17:02:37.930Z,9.58
2023-04-07T17:05:40.199Z,9.57
2023-04-07T17:08:42.062Z,9.50
2023-04-07T17:11:43.596Z,9.41
2023-04-07T17:14:45.339Z,9.32
2023-04-07T17:17:46.972Z,9.21
2023-04-07T17:20:56.237Z,9.13
2023-04-07T17:23:57.827Z,8.99
2023-04-07T17:26:59.376Z,8.89
2023-04-07T17:30:00.958Z,8.83
2023-04-07T17:33:03.745Z,8.77
2023-04-07T17:36:05.420Z,8.71
2023-04-07T17:39:07.056Z,8.67
2023-04-07T17:42:11.200Z,8.59
2023-04-07T17:45:12.917Z,8.51
2023-04-07T17:48:14.603Z,8.44
2023-04-07T17:51:18.492Z,8.40
2023-04-07T17:54:20.062Z,8.28
2023-04-07T17:57:21.650Z,8.15
2023-04-07T18:00:23.707Z,8.02
2023-04-07T18:03:25.745Z,7.90
2023-04-07T18:06:28.568Z,7.81
2023-04-07T18:09:30.597Z,7.70
2023-04-07T18:12:32.236Z,7.69
2023-04-07T18:15:33.935Z,7.58
2023-04-07T18:18:38.107Z,7.51
2023-04-07T18:21:39.679Z,7.44
2023-04-07T18:24:41.218Z,7.37
2023-04-07T18:27:42.997Z,7.29
2023-04-07T18:30:44.821Z,7.18
2023-04-07T18:33:46.413Z,7.09
2023-04-07T18:36:48.477Z,7.00
2023-04-07T18:39:50.280Z,6.94
2023-04-07T18:42:52.013Z,6.88
2023-04-07T18:45:54.274Z,6.86
2023-04-07T18:48:55.865Z,6.82
2023-04-07T18:51:57.626Z,6.73
2023-04-07T18:54:59.258Z,6.60
2023-04-07T18:58:00.873Z,6.48
2023-04-07T19:01:02.645Z,6.36
2023-04-07T19:04:04.535Z,6.26
2023-04-07T19:07:06.303Z,6.19
2023-04-07T19:10:09.249Z,6.16
2023-04-07T19:13:11.059Z,6.12
2023-04-07T19:16:12.745Z,6.07
2023-04-07T19:19:14.420Z,5.97
2023-04-07T19:22:16.584Z,5.89
2023-04-07T19:25:18.095Z,5.83
2023-04-07T19:28:19.711Z,5.77
2023-04-07T19:31:21.273Z,5.69
2023-04-07T19:34:23.181Z,5.63
2023-04-07T19:37:24.746Z,5.58
2023-04-07T19:40:26.474Z,5.53
2023-04-07T19:43:28.021Z,5.44
2023-04-07T19:46:29.731Z,5.34
2023-04-07T19:49:31.627Z,5.27
2023-04-07T19:52:33.241Z,5.21
2023-04-07T19:55:34.788Z,5.10
2023-04-07T19:58:38.449Z,4.95
2023-04-07T20:01:40.231Z,4.81
2023-04-07T20:04:41.942Z,4.70
2023-04-07T20:07:44.227Z,4.62
2023-04-07T20:10:45.800Z,4.55
2023-04-07T20:13:48.441Z,4.48
2023-04-07T20:16:50.044Z,4.41
2023-04-07T20:19:54.637Z,4.37
2023-04-07T20:22:56.266Z,4.31
2023-04-07T20:25:57.830Z,4.24
2023-04-07T20:28:59.450Z,4.20
2023-04-07T20:32:01.164Z,4.15
2023-04-07T20:35:03.945Z,4.12
2023-04-07T20:38:06.058Z,4.08
2023-04-07T20:41:11.718Z,4.02
2023-04-07T20:44:13.324Z,3.96
2023-04-07T20:47:14.967Z,3.90
2023-04-07T20:50:17.042Z,3.86
2023-04-07T20:53:19.691Z,3.83
2023-04-07T20:56:21.784Z,3.80
2023-04-07T20:59:23.399Z,3.80
2023-04-07T21:02:25.165Z,3.78
2023-04-07T21:05:28.330Z,3.76
2023-04-07T21:08:29.927Z,3.73
2023-04-07T21:11:31.570Z,3.71
2023-04-07T21:14:33.195Z,3.71
2023-04-07T21:17:34.890Z,3.71
2023-04-07T21:20:37.557Z,3.70
2023-04-07T21:23:39.173Z,3.69
2023-04-07T21:26:40.908Z,3.70
2023-04-07T21:29:42.644Z,3.71
2023-04-07T21:32:47.145Z,3.73
2023-04-07T21:35:49.658Z,3.73
2023-04-07T21:38:52.362Z,3.71
2023-04-07T21:41:53.966Z,3.69
2023-04-07T21:44:55.826Z,3.70
2023-04-07T21:47:57.418Z,3.73
2023-04-07T21:50:59.044Z,3.75
2023-04-07T21:54:00.940Z,3.75
2023-04-07T21:57:02.493Z,3.73
2023-04-07T22:00:05.208Z,3.72
2023-04-07T22:03:07.461Z,3.73
2023-04-07T22:06:09.361Z,3.71
2023-04-07T22:09:11.158Z,3.71
2023-04-07T22:12:12.697Z,3.71
2023-04-07T22:15:14.328Z,3.70
2023-04-07T22:18:16.103Z,3.70
2023-04-07T22:21:17.949Z,3.69
2023-04-07T22:24:19.500Z,3.68
2023-04-07T22:27:21.169Z,3.67
2023-04-07T22:30:24.556Z,3.69
2023-04-07T22:33:26.197Z,3.69
2023-04-07T22:36:28.032Z,3.70
2023-04-07T22:39:29.671Z,3.68
2023-04-07T22:42:31.243Z,3.68
2023-04-07T22:45:32.833Z,3.69
2023-04-07T22:48:34.454Z,3.68
2023-04-07T22:51:36.589Z,3.67
2023-04-07T22:54:38.138Z,3.66
2023-04-07T22:57:39.714Z,3.65
2023-04-07T23:00:41.367Z,3.63
2023-04-07T23:03:43.049Z,3.63
2023-04-07T23:06:44.681Z,3.65
2023-04-07T23:09:46.692Z,3.66
2023-04-07T23:12:48.270Z,3.68
2023-04-07T23:15:49.916Z,3.69
2023-04-07T23:18:51.843Z,3.70
2023-04-07T23:21:53.886Z,3.72
2023-04-07T23:24:56.855Z,3.70
2023-04-07T23:27:58.402Z,3.70
2023-04-07T23:30:59.993Z,3.72
2023-04-07T23:34:01.542Z,3.71
2023-04-07T23:37:03.298Z,3.72
2023-04-07T23:40:06.627Z,3.72
2023-04-07T23:43:08.229Z,3.71
2023-04-07T23:46:09.831Z,3.69
2023-04-07T23:49:11.630Z,3.67
2023-04-07T23:52:13.210Z,3.64
2023-04-07T23:55:14.829Z,3.65
2023-04-07T23:58:16.719Z,3.64
